sensor_id;sensor_type;location;lat;lon;timestamp;pressure;altitude;pressure_sealevel;temperature;humidity
44457;BME280;30159;49.316;8.558;2023-04-26T00:01:10;100558.88;;;6.47;100.00
44457;BME280;30159;49.316;8.558;2023-04-26T00:03:39;100554.00;;;6.44;100.00
44457;BME280;30159;49.316;8.558;2023-04-26T00:06:05;100561.72;;;6.41;100.00
44457;BME280;30159;49.316;8.558;2023-04-26T00:08:34;100561.16;;;6.39;100.00
44457;BME280;30159;49.316;8.558;2023-04-26T00:11:00;100558.25;;;6.40;100.00
44457;BME280;30159;49.316;8.558;2023-04-26T00:13:28;100559.31;;;6.39;100.00
44457;BME280;30159;49.316;8.558;2023-04-26T00:15:55;100546.09;;;6.32;100.00
44457;BME280;30159;49.316;8.558;2023-04-26T00:18:22;100557.59;;;6.33;100.00
44457;BME280;30159;49.316;8.558;2023-04-26T00:20:49;100563.78;;;6.33;100.00
44457;BME280;30159;49.316;8.558;2023-04-26T00:23:16;100562.47;;;6.36;100.00
44457;BME280;30159;49.316;8.558;2023-04-26T00:25:42;100566.28;;;6.40;100.00
44457;BME280;30159;49.316;8.558;2023-04-26T00:28:09;100569.59;;;6.47;100.00
44457;BME280;30159;49.316;8.558;2023-04-26T00:30:37;100572.31;;;6.52;100.00
44457;BME280;30159;49.316;8.558;2023-04-26T00:33:06;100570.22;;;6.54;100.00
44457;BME280;30159;49.316;8.558;2023-04-26T00:35:33;100568.09;;;6.57;100.00
44457;BME280;30159;49.316;8.558;2023-04-26T00:38:00;100580.94;;;6.54;100.00
44457;BME280;30159;49.316;8.558;2023-04-26T00:40:26;100562.06;;;6.44;100.00
44457;BME280;30159;49.316;8.558;2023-04-26T00:42:56;100563.09;;;6.43;100.00
44457;BME280;30159;49.316;8.558;2023-04-26T00:45:23;100560.34;;;6.38;100.00
44457;BME280;30159;49.316;8.558;2023-04-26T00:47:51;100555.25;;;6.37;100.00
44457;BME280;30159;49.316;8.558;2023-04-26T00:50:19;100554.69;;;6.35;100.00
44457;BME280;30159;49.316;8.558;2023-04-26T00:52:46;100555.00;;;6.38;100.00
44457;BME280;30159;49.316;8.558;2023-04-26T00:55:13;100559.78;;;6.36;100.00
44457;BME280;30159;49.316;8.558;2023-04-26T00:57:40;100552.88;;;6.40;100.00
44457;BME280;30159;49.316;8.558;2023-04-26T01:00:08;100559.13;;;6.46;100.00
44457;BME280;30159;49.316;8.558;2023-04-26T01:02:34;100554.59;;;6.46;100.00
44457;BME280;30159;49.316;8.558;2023-04-26T01:05:03;100557.53;;;6.28;100.00
44457;BME280;30159;49.316;8.558;2023-04-26T01:07:30;100497.22;;;5.86;100.00
44457;BME280;30159;49.316;8.558;2023-04-26T01:09:58;100568.09;;;6.18;100.00
44457;BME280;30159;49.316;8.558;2023-04-26T01:12:25;100517.41;;;5.77;100.00
44457;BME280;30159;49.316;8.558;2023-04-26T01:14:52;100569.59;;;6.08;100.00
44457;BME280;30159;49.316;8.558;2023-04-26T01:17:19;100568.75;;;5.91;100.00
44457;BME280;30159;49.316;8.558;2023-04-26T01:19:46;100569.31;;;5.76;100.00
44457;BME280;30159;49.316;8.558;2023-04-26T01:22:14;100583.66;;;5.70;100.00
44457;BME280;30159;49.316;8.558;2023-04-26T01:24:44;100577.09;;;5.61;100.00
44457;BME280;30159;49.316;8.558;2023-04-26T01:27:11;100580.97;;;5.53;100.00
44457;BME280;30159;49.316;8.558;2023-04-26T01:29:38;100575.78;;;5.46;100.00
44457;BME280;30159;49.316;8.558;2023-04-26T01:32:05;100576.41;;;5.37;100.00
44457;BME280;30159;49.316;8.558;2023-04-26T01:34:31;100572.00;;;5.31;100.00
44457;BME280;30159;49.316;8.558;2023-04-26T01:36:58;100567.66;;;5.24;100.00
44457;BME280;30159;49.316;8.558;2023-04-26T01:39:26;100568.59;;;5.18;100.00
44457;BME280;30159;49.316;8.558;2023-04-26T01:41:55;100567.66;;;5.13;100.00
44457;BME280;30159;49.316;8.558;2023-04-26T01:44:22;100565.00;;;5.13;100.00
44457;BME280;30159;49.316;8.558;2023-04-26T01:46:49;100563.03;;;5.08;100.00
44457;BME280;30159;49.316;8.558;2023-04-26T01:49:15;100569.53;;;5.12;100.00
44457;BME280;30159;49.316;8.558;2023-04-26T01:51:42;100566.84;;;5.12;100.00
44457;BME280;30159;49.316;8.558;2023-04-26T01:54:08;100566.28;;;5.10;100.00
44457;BME280;30159;49.316;8.558;2023-04-26T01:56:35;100569.53;;;5.12;100.00
44457;BME280;30159;49.316;8.558;2023-04-26T01:59:03;100559.56;;;5.07;100.00
44457;BME280;30159;49.316;8.558;2023-04-26T02:01:29;100539.50;;;4.93;100.00
44457;BME280;30159;49.316;8.558;2023-04-26T02:03:56;100567.56;;;5.07;100.00
44457;BME280;30159;49.316;8.558;2023-04-26T02:06:23;100563.44;;;5.00;100.00
44457;BME280;30159;49.316;8.558;2023-04-26T02:08:51;100569.13;;;4.92;100.00
44457;BME280;30159;49.316;8.558;2023-04-26T02:11:17;100569.28;;;4.85;100.00
44457;BME280;30159;49.316;8.558;2023-04-26T02:13:44;100571.53;;;4.76;100.00
44457;BME280;30159;49.316;8.558;2023-04-26T02:16:11;100572.81;;;4.74;100.00
44457;BME280;30159;49.316;8.558;2023-04-26T02:18:40;100576.75;;;4.71;100.00
44457;BME280;30159;49.316;8.558;2023-04-26T02:21:07;100566.53;;;4.68;100.00
44457;BME280;30159;49.316;8.558;2023-04-26T02:23:34;100573.50;;;4.69;100.00
44457;BME280;30159;49.316;8.558;2023-04-26T02:26:00;100573.41;;;4.64;100.00
44457;BME280;30159;49.316;8.558;2023-04-26T02:28:27;100575.94;;;4.59;100.00
44457;BME280;30159;49.316;8.558;2023-04-26T02:30:54;100560.41;;;4.56;100.00
44457;BME280;30159;49.316;8.558;2023-04-26T02:33:22;100571.09;;;4.56;100.00
44457;BME280;30159;49.316;8.558;2023-04-26T02:35:49;100582.59;;;4.56;100.00
44457;BME280;30159;49.316;8.558;2023-04-26T02:38:16;100565.88;;;4.49;100.00
44457;BME280;30159;49.316;8.558;2023-04-26T02:40:42;100576.56;;;4.49;100.00
44457;BME280;30159;49.316;8.558;2023-04-26T02:43:09;100569.72;;;4.41;100.00
44457;BME280;30159;49.316;8.558;2023-04-26T02:45:40;100578.75;;;4.40;100.00
44457;BME280;30159;49.316;8.558;2023-04-26T02:48:06;100594.56;;;4.30;100.00
44457;BME280;30159;49.316;8.558;2023-04-26T02:50:34;100572.88;;;4.27;100.00
44457;BME280;30159;49.316;8.558;2023-04-26T02:53:01;100570.22;;;4.27;100.00
44457;BME280;30159;49.316;8.558;2023-04-26T02:55:29;100571.25;;;4.26;100.00
44457;BME280;30159;49.316;8.558;2023-04-26T02:57:55;100569.63;;;4.25;100.00
44457;BME280;30159;49.316;8.558;2023-04-26T03:00:22;100578.34;;;4.20;100.00
44457;BME280;30159;49.316;8.558;2023-04-26T03:02:49;100578.34;;;4.08;100.00
44457;BME280;30159;49.316;8.558;2023-04-26T03:05:16;100577.84;;;3.99;100.00
44457;BME280;30159;49.316;8.558;2023-04-26T03:07:44;100576.09;;;3.93;100.00
44457;BME280;30159;49.316;8.558;2023-04-26T03:10:10;100578.44;;;3.90;100.00
44457;BME280;30159;49.316;8.558;2023-04-26T03:12:37;100572.25;;;3.89;100.00
44457;BME280;30159;49.316;8.558;2023-04-26T03:15:04;100569.47;;;3.84;100.00
44457;BME280;30159;49.316;8.558;2023-04-26T03:17:30;100577.94;;;3.81;100.00
44457;BME280;30159;49.316;8.558;2023-04-26T03:19:57;100578.75;;;3.70;100.00
44457;BME280;30159;49.316;8.558;2023-04-26T03:22:23;100571.78;;;3.69;100.00
44457;BME280;30159;49.316;8.558;2023-04-26T03:24:51;100575.94;;;3.65;100.00
44457;BME280;30159;49.316;8.558;2023-04-26T03:27:18;100569.78;;;3.52;100.00
44457;BME280;30159;49.316;8.558;2023-04-26T03:29:44;100573.03;;;3.54;100.00
44457;BME280;30159;49.316;8.558;2023-04-26T03:32:11;100575.72;;;3.54;100.00
44457;BME280;30159;49.316;8.558;2023-04-26T03:34:37;100582.28;;;3.52;100.00
44457;BME280;30159;49.316;8.558;2023-04-26T03:37:04;100582.06;;;3.53;100.00
44457;BME280;30159;49.316;8.558;2023-04-26T03:39:30;100582.75;;;3.49;100.00
44457;BME280;30159;49.316;8.558;2023-04-26T03:41:58;100589.47;;;3.51;100.00
44457;BME280;30159;49.316;8.558;2023-04-26T03:44:25;100587.28;;;3.48;100.00
44457;BME280;30159;49.316;8.558;2023-04-26T03:46:51;100585.63;;;3.47;100.00
44457;BME280;30159;49.316;8.558;2023-04-26T03:49:18;100583.91;;;3.41;100.00
44457;BME280;30159;49.316;8.558;2023-04-26T03:51:45;100586.09;;;3.44;100.00
44457;BME280;30159;49.316;8.558;2023-04-26T03:54:11;100588.97;;;3.43;100.00
44457;BME280;30159;49.316;8.558;2023-04-26T03:56:38;100583.91;;;3.41;100.00
44457;BME280;30159;49.316;8.558;2023-04-26T03:59:07;100584.19;;;3.33;100.00
44457;BME280;30159;49.316;8.558;2023-04-26T04:01:34;100584.19;;;3.33;100.00
44457;BME280;30159;49.316;8.558;2023-04-26T04:04:01;100572.94;;;3.31;100.00
44457;BME280;30159;49.316;8.558;2023-04-26T04:06:28;100577.25;;;3.32;100.00
44457;BME280;30159;49.316;8.558;2023-04-26T04:08:55;100578.88;;;3.33;100.00
44457;BME280;30159;49.316;8.558;2023-04-26T04:11:21;100573.41;;;3.28;100.00
44457;BME280;30159;49.316;8.558;2023-04-26T04:13:48;100567.94;;;3.23;100.00
44457;BME280;30159;49.316;8.558;2023-04-26T04:16:16;100536.91;;;2.98;100.00
44457;BME280;30159;49.316;8.558;2023-04-26T04:18:42;100576.72;;;3.11;100.00
44457;BME280;30159;49.316;8.558;2023-04-26T04:21:09;100580.44;;;3.10;100.00
44457;BME280;30159;49.316;8.558;2023-04-26T04:23:36;100581.38;;;3.16;100.00
44457;BME280;30159;49.316;8.558;2023-04-26T04:26:02;100581.75;;;3.20;100.00
44457;BME280;30159;49.316;8.558;2023-04-26T04:28:30;100579.19;;;3.25;100.00
44457;BME280;30159;49.316;8.558;2023-04-26T04:30:56;100588.13;;;3.30;100.00
44457;BME280;30159;49.316;8.558;2023-04-26T04:33:26;100589.44;;;3.40;100.00
44457;BME280;30159;49.316;8.558;2023-04-26T04:35:53;100588.88;;;3.49;100.00
44457;BME280;30159;49.316;8.558;2023-04-26T04:38:19;100595.19;;;3.55;100.00
44457;BME280;30159;49.316;8.558;2023-04-26T04:40:46;100567.78;;;3.36;100.00
44457;BME280;30159;49.316;8.558;2023-04-26T04:43:14;100604.50;;;3.76;100.00
44457;BME280;30159;49.316;8.558;2023-04-26T04:45:41;100611.47;;;3.89;100.00
44457;BME280;30159;49.316;8.558;2023-04-26T04:48:07;100610.91;;;3.98;100.00
44457;BME280;30159;49.316;8.558;2023-04-26T04:50:37;100614.41;;;4.11;100.00
44457;BME280;30159;49.316;8.558;2023-04-26T04:53:03;100613.16;;;4.25;100.00
44457;BME280;30159;49.316;8.558;2023-04-26T04:55:30;100619.19;;;4.32;100.00
44457;BME280;30159;49.316;8.558;2023-04-26T04:57:57;100614.53;;;4.39;100.00
44457;BME280;30159;49.316;8.558;2023-04-26T05:00:23;100615.91;;;4.54;100.00
44457;BME280;30159;49.316;8.558;2023-04-26T05:02:50;100613.47;;;4.76;100.00
44457;BME280;30159;49.316;8.558;2023-04-26T05:05:16;100628.97;;;5.02;100.00
44457;BME280;30159;49.316;8.558;2023-04-26T05:07:44;100627.28;;;5.25;100.00
44457;BME280;30159;49.316;8.558;2023-04-26T05:10:11;100631.06;;;5.41;100.00
44457;BME280;30159;49.316;8.558;2023-04-26T05:12:38;100622.69;;;5.83;100.00
44457;BME280;30159;49.316;8.558;2023-04-26T05:15:05;100628.22;;;5.93;100.00
44457;BME280;30159;49.316;8.558;2023-04-26T05:17:32;100629.88;;;6.11;100.00
44457;BME280;30159;49.316;8.558;2023-04-26T05:19:59;100631.72;;;6.10;100.00
44457;BME280;30159;49.316;8.558;2023-04-26T05:22:30;100632.94;;;6.20;100.00
44457;BME280;30159;49.316;8.558;2023-04-26T05:25:00;100634.16;;;6.29;100.00
44457;BME280;30159;49.316;8.558;2023-04-26T05:27:27;100635.22;;;6.28;100.00
44457;BME280;30159;49.316;8.558;2023-04-26T05:29:54;100641.31;;;6.79;100.00
44457;BME280;30159;49.316;8.558;2023-04-26T05:32:20;100642.38;;;8.09;100.00
44457;BME280;30159;49.316;8.558;2023-04-26T05:34:47;100639.16;;;9.85;96.06
44457;BME280;30159;49.316;8.558;2023-04-26T05:37:13;100638.94;;;11.18;83.57
44457;BME280;30159;49.316;8.558;2023-04-26T05:39:41;100641.97;;;13.32;74.11
44457;BME280;30159;49.316;8.558;2023-04-26T05:42:09;100643.88;;;14.67;67.24
44457;BME280;30159;49.316;8.558;2023-04-26T05:44:36;100633.56;;;15.70;63.51
44457;BME280;30159;49.316;8.558;2023-04-26T05:47:02;100638.50;;;16.67;60.65
44457;BME280;30159;49.316;8.558;2023-04-26T05:49:29;100635.28;;;17.04;58.98
44457;BME280;30159;49.316;8.558;2023-04-26T05:51:57;100618.31;;;17.08;58.94
44457;BME280;30159;49.316;8.558;2023-04-26T05:54:24;100640.16;;;18.21;57.17
44457;BME280;30159;49.316;8.558;2023-04-26T05:56:50;100647.47;;;19.23;54.96
44457;BME280;30159;49.316;8.558;2023-04-26T05:59:18;100663.69;;;20.12;53.24
44457;BME280;30159;49.316;8.558;2023-04-26T06:01:45;100646.81;;;20.68;52.39
44457;BME280;30159;49.316;8.558;2023-04-26T06:04:11;100652.53;;;21.12;50.58
44457;BME280;30159;49.316;8.558;2023-04-26T06:06:38;100627.78;;;20.38;51.55
44457;BME280;30159;49.316;8.558;2023-04-26T06:09:04;100645.09;;;20.88;51.39
44457;BME280;30159;49.316;8.558;2023-04-26T06:11:31;100604.53;;;20.94;50.21
44457;BME280;30159;49.316;8.558;2023-04-26T06:13:57;100656.91;;;21.94;49.10
44457;BME280;30159;49.316;8.558;2023-04-26T06:16:25;100665.28;;;22.58;48.42
44457;BME280;30159;49.316;8.558;2023-04-26T06:18:52;100646.28;;;23.35;47.13
44457;BME280;30159;49.316;8.558;2023-04-26T06:21:18;100649.13;;;24.17;46.26
44457;BME280;30159;49.316;8.558;2023-04-26T06:23:45;100648.94;;;24.98;43.96
44457;BME280;30159;49.316;8.558;2023-04-26T06:26:12;100643.50;;;25.29;42.93
44457;BME280;30159;49.316;8.558;2023-04-26T06:28:38;100649.84;;;25.29;42.43
44457;BME280;30159;49.316;8.558;2023-04-26T06:31:05;100640.56;;;24.91;42.73
44457;BME280;30159;49.316;8.558;2023-04-26T06:33:33;100644.88;;;24.00;44.06
44457;BME280;30159;49.316;8.558;2023-04-26T06:35:59;100643.91;;;23.73;43.06
44457;BME280;30159;49.316;8.558;2023-04-26T06:38:26;100635.38;;;23.39;44.46
44457;BME280;30159;49.316;8.558;2023-04-26T06:40:52;100534.66;;;23.19;43.44
44457;BME280;30159;49.316;8.558;2023-04-26T06:43:19;100638.94;;;23.98;43.37
44457;BME280;30159;49.316;8.558;2023-04-26T06:45:45;100635.88;;;24.03;42.23
44457;BME280;30159;49.316;8.558;2023-04-26T06:48:12;100633.84;;;24.66;42.76
44457;BME280;30159;49.316;8.558;2023-04-26T06:50:40;100629.13;;;24.66;41.13
44457;BME280;30159;49.316;8.558;2023-04-26T06:53:06;100635.94;;;22.62;43.78
44457;BME280;30159;49.316;8.558;2023-04-26T06:55:33;100634.97;;;23.21;42.92
44457;BME280;30159;49.316;8.558;2023-04-26T06:57:59;100635.31;;;22.08;44.70
44457;BME280;30159;49.316;8.558;2023-04-26T07:00:26;100628.00;;;23.82;43.70
44457;BME280;30159;49.316;8.558;2023-04-26T07:02:54;100622.34;;;25.13;42.66
44457;BME280;30159;49.316;8.558;2023-04-26T07:05:23;100622.06;;;25.49;42.10
44457;BME280;30159;49.316;8.558;2023-04-26T07:07:51;100619.25;;;26.13;41.33
44457;BME280;30159;49.316;8.558;2023-04-26T07:10:17;100618.34;;;26.42;40.85
44457;BME280;30159;49.316;8.558;2023-04-26T07:12:45;100616.88;;;27.15;39.20
44457;BME280;30159;49.316;8.558;2023-04-26T07:15:12;100622.50;;;27.22;38.83
44457;BME280;30159;49.316;8.558;2023-04-26T07:17:38;100619.34;;;26.64;39.67
44457;BME280;30159;49.316;8.558;2023-04-26T07:20:06;100600.94;;;26.94;39.00
44457;BME280;30159;49.316;8.558;2023-04-26T07:22:33;100610.41;;;26.89;39.29
44457;BME280;30159;49.316;8.558;2023-04-26T07:25:00;100618.72;;;27.59;38.88
44457;BME280;30159;49.316;8.558;2023-04-26T07:27:29;100607.78;;;27.14;40.15
44457;BME280;30159;49.316;8.558;2023-04-26T07:29:55;100608.31;;;27.34;39.63
44457;BME280;30159;49.316;8.558;2023-04-26T07:32:22;100609.34;;;27.99;38.88
44457;BME280;30159;49.316;8.558;2023-04-26T07:34:48;100602.25;;;28.66;38.24
44457;BME280;30159;49.316;8.558;2023-04-26T07:37:15;100608.00;;;27.57;39.30
44457;BME280;30159;49.316;8.558;2023-04-26T07:39:42;100609.72;;;26.51;40.35
44457;BME280;30159;49.316;8.558;2023-04-26T07:42:10;100606.41;;;25.60;40.83
44457;BME280;30159;49.316;8.558;2023-04-26T07:44:36;100612.13;;;23.37;42.58
44457;BME280;30159;49.316;8.558;2023-04-26T07:47:03;100615.31;;;23.58;43.11
44457;BME280;30159;49.316;8.558;2023-04-26T07:49:29;100612.88;;;23.92;43.18
44457;BME280;30159;49.316;8.558;2023-04-26T07:51:56;100619.16;;;24.85;42.84
44457;BME280;30159;49.316;8.558;2023-04-26T07:54:26;100622.69;;;23.54;43.26
44457;BME280;30159;49.316;8.558;2023-04-26T07:56:52;100620.28;;;21.09;45.78
44457;BME280;30159;49.316;8.558;2023-04-26T07:59:21;100620.28;;;19.18;46.72
44457;BME280;30159;49.316;8.558;2023-04-26T08:01:47;100626.88;;;17.67;49.17
44457;BME280;30159;49.316;8.558;2023-04-26T08:04:14;100623.19;;;16.79;51.33
44457;BME280;30159;49.316;8.558;2023-04-26T08:06:40;100631.41;;;16.26;52.83
44457;BME280;30159;49.316;8.558;2023-04-26T08:09:09;100624.53;;;15.60;53.91
44457;BME280;30159;49.316;8.558;2023-04-26T08:11:35;100624.53;;;15.24;54.32
44457;BME280;30159;49.316;8.558;2023-04-26T08:14:02;100625.88;;;15.13;54.98
44457;BME280;30159;49.316;8.558;2023-04-26T08:16:30;100621.91;;;15.19;54.85
44457;BME280;30159;49.316;8.558;2023-04-26T08:18:56;100620.34;;;15.04;55.09
44457;BME280;30159;49.316;8.558;2023-04-26T08:21:26;100633.31;;;14.80;55.75
44457;BME280;30159;49.316;8.558;2023-04-26T08:23:53;100627.38;;;14.91;56.98
44457;BME280;30159;49.316;8.558;2023-04-26T08:26:20;100625.38;;;14.97;57.23
44457;BME280;30159;49.316;8.558;2023-04-26T08:28:46;100625.16;;;14.93;58.01
44457;BME280;30159;49.316;8.558;2023-04-26T08:31:13;100627.78;;;14.99;57.27
44457;BME280;30159;49.316;8.558;2023-04-26T08:33:41;100621.03;;;14.68;57.39
44457;BME280;30159;49.316;8.558;2023-04-26T08:36:08;100626.00;;;14.20;55.80
44457;BME280;30159;49.316;8.558;2023-04-26T08:38:34;100633.31;;;13.30;56.18
44457;BME280;30159;49.316;8.558;2023-04-26T08:41:01;100630.84;;;13.09;58.33
44457;BME280;30159;49.316;8.558;2023-04-26T08:43:30;100615.69;;;13.08;59.27
44457;BME280;30159;49.316;8.558;2023-04-26T08:45:57;100616.13;;;12.96;59.12
44457;BME280;30159;49.316;8.558;2023-04-26T08:48:25;100615.38;;;12.91;55.64
44457;BME280;30159;49.316;8.558;2023-04-26T08:50:55;100610.84;;;13.05;57.18
44457;BME280;30159;49.316;8.558;2023-04-26T08:53:22;100620.38;;;13.45;57.20
44457;BME280;30159;49.316;8.558;2023-04-26T08:55:49;100613.31;;;13.63;57.67
44457;BME280;30159;49.316;8.558;2023-04-26T08:58:16;100609.25;;;13.66;58.23
44457;BME280;30159;49.316;8.558;2023-04-26T09:00:44;100601.44;;;13.78;58.16
44457;BME280;30159;49.316;8.558;2023-04-26T09:03:10;100603.69;;;13.90;56.19
44457;BME280;30159;49.316;8.558;2023-04-26T09:05:39;100604.97;;;14.11;56.04
44457;BME280;30159;49.316;8.558;2023-04-26T09:08:12;100601.59;;;14.33;55.44
44457;BME280;30159;49.316;8.558;2023-04-26T09:10:40;100597.56;;;14.31;55.31
44457;BME280;30159;49.316;8.558;2023-04-26T09:13:07;100595.41;;;14.61;55.94
44457;BME280;30159;49.316;8.558;2023-04-26T09:15:34;100598.63;;;14.90;53.88
44457;BME280;30159;49.316;8.558;2023-04-26T09:18:17;100593.38;;;14.94;52.71
44457;BME280;30159;49.316;8.558;2023-04-26T09:20:45;100591.88;;;15.38;51.58
44457;BME280;30159;49.316;8.558;2023-04-26T09:23:13;100594.34;;;15.85;50.28
44457;BME280;30159;49.316;8.558;2023-04-26T09:25:41;100586.81;;;15.82;50.81
44457;BME280;30159;49.316;8.558;2023-04-26T09:28:18;100595.59;;;15.78;53.41
44457;BME280;30159;49.316;8.558;2023-04-26T09:30:45;100587.28;;;16.06;52.66
44457;BME280;30159;49.316;8.558;2023-04-26T09:33:12;100585.06;;;16.39;51.92
44457;BME280;30159;49.316;8.558;2023-04-26T09:35:40;100584.50;;;16.69;52.02
44457;BME280;30159;49.316;8.558;2023-04-26T09:38:08;100591.81;;;16.91;51.07
44457;BME280;30159;49.316;8.558;2023-04-26T09:40:39;100580.13;;;16.50;48.77
44457;BME280;30159;49.316;8.558;2023-04-26T09:43:07;100578.81;;;16.39;50.27
44457;BME280;30159;49.316;8.558;2023-04-26T09:45:42;100581.88;;;16.46;49.99
44457;BME280;30159;49.316;8.558;2023-04-26T09:48:17;100588.16;;;16.15;51.93
44457;BME280;30159;49.316;8.558;2023-04-26T09:50:46;100590.31;;;15.82;51.81
44457;BME280;30159;49.316;8.558;2023-04-26T09:53:27;100596.56;;;16.05;51.99
44457;BME280;30159;49.316;8.558;2023-04-26T09:55:56;100598.06;;;15.52;51.54
44457;BME280;30159;49.316;8.558;2023-04-26T09:58:23;100600.13;;;14.96;51.57
44457;BME280;30159;49.316;8.558;2023-04-26T10:00:50;100595.25;;;14.52;52.42
44457;BME280;30159;49.316;8.558;2023-04-26T10:03:17;100594.59;;;15.02;52.32
44457;BME280;30159;49.316;8.558;2023-04-26T10:05:45;100439.38;;;14.17;50.98
44457;BME280;30159;49.316;8.558;2023-04-26T10:08:11;100588.56;;;15.64;50.42
44457;BME280;30159;49.316;8.558;2023-04-26T10:10:38;100581.94;;;15.56;48.85
44457;BME280;30159;49.316;8.558;2023-04-26T10:13:07;100571.00;;;15.84;49.92
44457;BME280;30159;49.316;8.558;2023-04-26T10:15:34;100583.75;;;16.37;46.31
44457;BME280;30159;49.316;8.558;2023-04-26T10:18:01;100583.09;;;15.77;48.18
44457;BME280;30159;49.316;8.558;2023-04-26T10:20:28;100569.22;;;16.10;48.05
44457;BME280;30159;49.316;8.558;2023-04-26T10:22:56;100566.78;;;16.40;46.56
44457;BME280;30159;49.316;8.558;2023-04-26T10:25:34;100570.13;;;16.77;45.53
44457;BME280;30159;49.316;8.558;2023-04-26T10:28:00;100569.25;;;16.59;44.00
44457;BME280;30159;49.316;8.558;2023-04-26T10:30:29;100576.00;;;14.81;45.71
44457;BME280;30159;49.316;8.558;2023-04-26T10:33:11;100578.13;;;13.77;46.53
44457;BME280;30159;49.316;8.558;2023-04-26T10:35:58;100568.06;;;13.64;46.00
44457;BME280;30159;49.316;8.558;2023-04-26T10:38:26;100573.13;;;14.31;47.84
44457;BME280;30159;49.316;8.558;2023-04-26T10:40:52;100576.91;;;14.63;49.37
44457;BME280;30159;49.316;8.558;2023-04-26T10:43:26;100579.16;;;15.47;49.83
44457;BME280;30159;49.316;8.558;2023-04-26T10:45:54;100560.47;;;15.91;47.67
44457;BME280;30159;49.316;8.558;2023-04-26T10:48:28;100558.50;;;16.54;48.79
44457;BME280;30159;49.316;8.558;2023-04-26T10:51:07;100507.38;;;16.99;45.89
44457;BME280;30159;49.316;8.558;2023-04-26T10:53:57;100563.97;;;17.28;44.60
44457;BME280;30159;49.316;8.558;2023-04-26T10:56:51;100553.47;;;16.78;48.05
44457;BME280;30159;49.316;8.558;2023-04-26T10:59:19;100551.28;;;16.98;47.23
44457;BME280;30159;49.316;8.558;2023-04-26T11:01:48;100493.63;;;16.47;49.92
44457;BME280;30159;49.316;8.558;2023-04-26T11:04:14;100541.09;;;16.72;44.60
44457;BME280;30159;49.316;8.558;2023-04-26T11:06:48;100542.13;;;16.45;43.86
44457;BME280;30159;49.316;8.558;2023-04-26T11:09:35;100536.50;;;15.70;45.46
44457;BME280;30159;49.316;8.558;2023-04-26T11:12:06;100537.88;;;14.59;46.56
44457;BME280;30159;49.316;8.558;2023-04-26T11:14:33;100533.25;;;14.45;49.43
44457;BME280;30159;49.316;8.558;2023-04-26T11:17:03;100469.66;;;13.63;47.97
44457;BME280;30159;49.316;8.558;2023-04-26T11:19:30;100502.38;;;13.53;47.94
44457;BME280;30159;49.316;8.558;2023-04-26T11:21:57;100522.47;;;13.52;49.68
44457;BME280;30159;49.316;8.558;2023-04-26T11:24:24;100528.91;;;13.70;48.98
44457;BME280;30159;49.316;8.558;2023-04-26T11:26:51;100527.16;;;13.93;50.98
44457;BME280;30159;49.316;8.558;2023-04-26T11:29:18;100518.19;;;14.39;50.57
44457;BME280;30159;49.316;8.558;2023-04-26T11:31:50;100497.16;;;14.72;49.26
44457;BME280;30159;49.316;8.558;2023-04-26T11:34:19;100501.84;;;14.94;48.06
44457;BME280;30159;49.316;8.558;2023-04-26T11:36:47;100500.22;;;14.93;48.31
44457;BME280;30159;49.316;8.558;2023-04-26T11:39:14;100496.63;;;14.84;46.63
44457;BME280;30159;49.316;8.558;2023-04-26T11:41:40;100501.38;;;14.37;47.08
44457;BME280;30159;49.316;8.558;2023-04-26T11:44:07;100491.44;;;14.46;48.77
44457;BME280;30159;49.316;8.558;2023-04-26T11:46:36;100488.19;;;13.89;48.18
44457;BME280;30159;49.316;8.558;2023-04-26T11:49:02;100493.84;;;13.93;48.34
44457;BME280;30159;49.316;8.558;2023-04-26T11:51:31;100512.31;;;13.90;48.01
44457;BME280;30159;49.316;8.558;2023-04-26T11:53:59;100487.22;;;14.26;49.61
44457;BME280;30159;49.316;8.558;2023-04-26T11:56:26;100444.19;;;14.47;48.25
44457;BME280;30159;49.316;8.558;2023-04-26T11:58:53;100481.75;;;15.18;48.44
44457;BME280;30159;49.316;8.558;2023-04-26T12:01:20;100482.00;;;15.53;48.55
44457;BME280;30159;49.316;8.558;2023-04-26T12:03:49;100487.88;;;16.00;49.63
44457;BME280;30159;49.316;8.558;2023-04-26T12:06:16;100488.56;;;16.14;48.25
44457;BME280;30159;49.316;8.558;2023-04-26T12:08:49;100497.00;;;16.61;45.84
44457;BME280;30159;49.316;8.558;2023-04-26T12:11:16;100498.69;;;16.80;46.43
44457;BME280;30159;49.316;8.558;2023-04-26T12:13:44;100485.38;;;16.87;47.80
44457;BME280;30159;49.316;8.558;2023-04-26T12:16:12;100482.53;;;16.35;45.59
44457;BME280;30159;49.316;8.558;2023-04-26T12:18:39;100424.25;;;15.56;47.20
44457;BME280;30159;49.316;8.558;2023-04-26T12:21:06;100472.03;;;15.71;45.90
44457;BME280;30159;49.316;8.558;2023-04-26T12:23:37;100476.81;;;14.84;46.89
44457;BME280;30159;49.316;8.558;2023-04-26T12:26:06;100473.28;;;14.97;47.69
44457;BME280;30159;49.316;8.558;2023-04-26T12:28:35;100460.13;;;15.35;48.29
44457;BME280;30159;49.316;8.558;2023-04-26T12:31:02;100472.72;;;15.76;47.16
44457;BME280;30159;49.316;8.558;2023-04-26T12:33:28;100427.72;;;15.70;48.12
44457;BME280;30159;49.316;8.558;2023-04-26T12:35:57;100433.03;;;15.75;48.44
44457;BME280;30159;49.316;8.558;2023-04-26T12:38:24;100482.25;;;16.45;47.85
44457;BME280;30159;49.316;8.558;2023-04-26T12:40:51;100433.19;;;16.19;47.58
44457;BME280;30159;49.316;8.558;2023-04-26T12:43:19;100483.59;;;16.16;44.67
44457;BME280;30159;49.316;8.558;2023-04-26T12:45:48;100474.94;;;15.74;48.21
44457;BME280;30159;49.316;8.558;2023-04-26T12:48:14;100471.53;;;16.00;46.60
44457;BME280;30159;49.316;8.558;2023-04-26T12:50:41;100472.56;;;16.21;46.79
44457;BME280;30159;49.316;8.558;2023-04-26T12:53:08;100468.84;;;16.57;46.97